Terminal Aerodrome Forecast
Issued by NWS

Home | Current Version | Previous Version | Text Only | Print | Product List | Glossary On
Versions: 1 2 3 4 5 6 7 8 9 10 11 12 13 14 15 16 17 18 19 20 21 22 23 24 25 26 27 28 29 30 31 32 33
854
FTUS43 KDMX 110542
TAFFOD
TAF
KFOD 110542Z 1106/1206 04004KT P6SM SCT015 BKN040
     FM111200 VRB03KT P6SM BKN040
     FM111800 18007KT P6SM SCT040 BKN080
     FM112300 15005KT 2SM -SN BKN015 OVC040=

USA.gov is the U.S. government's official web portal to all federal, state and local government web resources and services.